Time;durP1;ratioP1;P1;durP2;ratioP2;P2;SDS_P1;SDS_P2;PMS_P1;PMS_P2;Temp;Humidity;BMP_temperature;BMP_pressure;BME280_temperature;BME280_humidity;BME280_pressure;Samples;Min_cycle;Max_cycle;Signal;HPM_P1;HPM_P2
2024/03/31 00:00:12;;;;;;;;;;;9.40;99.90;;;;;;5055280;28;19905;-69
2024/03/31 00:02:38;;;;;;;;;;;9.50;99.90;;;;;;5054970;28;20391;-70
2024/03/31 00:05:04;;;;;;;;;;;9.50;99.90;;;;;;5055145;28;19905;-70
2024/03/31 00:07:29;;;;;;;;;;;9.40;99.90;;;;;;5054976;28;19931;-70
2024/03/31 00:09:55;;;;;;;;;;;9.30;99.90;;;;;;5055105;28;19926;-70
2024/03/31 00:12:21;;;;;;;;;;;9.30;99.90;;;;;;5055056;28;19911;-69
2024/03/31 00:14:46;;;;;;;;;;;9.10;99.90;;;;;;5055087;28;20268;-69
2024/03/31 00:17:12;;;;;;;;;;;9.10;99.90;;;;;;5054692;28;20359;-68
2024/03/31 00:19:38;;;;;;;;;;;9.00;99.90;;;;;;5054956;28;20148;-69
2024/03/31 00:22:04;;;;;;;;;;;9.10;99.90;;;;;;5054890;28;19999;-70
2024/03/31 00:24:30;;;;;;;;;;;8.90;99.90;;;;;;5054824;28;20368;-70
2024/03/31 00:26:55;;;;;;;;;;;8.90;99.90;;;;;;5054657;28;19912;-70
2024/03/31 00:29:21;;;;;;;;;;;9.00;99.90;;;;;;5054803;28;20254;-70
2024/03/31 00:31:46;;;;;;;;;;;9.00;99.90;;;;;;5054794;28;19943;-70
2024/03/31 00:34:16;;;;;;;;;;;9.10;99.90;;;;;;5054680;28;20199;-70
2024/03/31 00:36:41;;;;;;;;;;;9.10;99.90;;;;;;5054714;28;19911;-70
2024/03/31 00:39:07;;;;;;;;;;;8.90;99.90;;;;;;5054031;28;19983;-69
2024/03/31 00:41:33;;;;;;;;;;;8.90;99.90;;;;;;5054523;28;19915;-69
2024/03/31 00:43:59;;;;;;;;;;;9.10;99.90;;;;;;5054514;28;19992;-69
2024/03/31 00:46:25;;;;;;;;;;;9.00;99.90;;;;;;5054435;28;19905;-69
2024/03/31 00:48:51;;;;;;;;;;;9.20;99.90;;;;;;5054262;28;20423;-69
2024/03/31 00:51:16;;;;;;;;;;;9.30;99.90;;;;;;5054444;28;19934;-70
2024/03/31 00:53:42;;;;;;;;;;;9.30;99.90;;;;;;5054263;28;20077;-69
2024/03/31 00:56:10;;;;;;;;;;;9.30;99.90;;;;;;5054321;28;19909;-70
2024/03/31 00:58:36;;;;;;;;;;;9.30;99.90;;;;;;5053953;28;19912;-70
2024/03/31 01:01:01;;;;;;;;;;;9.30;99.90;;;;;;5054209;28;20288;-70
2024/03/31 01:03:27;;;;;;;;;;;9.20;99.90;;;;;;5054127;28;19905;-69
2024/03/31 01:05:54;;;;;;;;;;;9.20;99.90;;;;;;5054135;28;19908;-69
2024/03/31 01:08:19;;;;;;;;;;;9.10;99.90;;;;;;5053753;28;19905;-70
2024/03/31 01:10:45;;;;;;;;;;;9.20;99.90;;;;;;5054154;28;20269;-70
2024/03/31 01:13:11;;;;;;;;;;;9.30;99.90;;;;;;5053904;28;20317;-70
2024/03/31 01:15:36;;;;;;;;;;;9.20;99.90;;;;;;5053953;28;20272;-70
2024/03/31 01:18:02;;;;;;;;;;;9.40;99.90;;;;;;5053625;28;19965;-70
2024/03/31 01:20:28;;;;;;;;;;;9.30;99.90;;;;;;5053880;28;19912;-70
2024/03/31 01:22:53;;;;;;;;;;;9.00;99.90;;;;;;5053716;28;19909;-70
2024/03/31 01:25:18;;;;;;;;;;;8.70;99.90;;;;;;5053792;28;19909;-70
2024/03/31 01:27:44;;;;;;;;;;;8.90;99.90;;;;;;5053346;28;19958;-70
2024/03/31 01:30:09;;;;;;;;;;;8.90;99.90;;;;;;5053600;28;19951;-69
2024/03/31 01:32:35;;;;;;;;;;;8.80;99.90;;;;;;5053472;28;19912;-69
2024/03/31 01:35:00;;;;;;;;;;;9.10;99.90;;;;;;5053561;28;19904;-70
2024/03/31 01:37:26;;;;;;;;;;;9.00;99.90;;;;;;5053423;28;20319;-70
2024/03/31 01:39:51;;;;;;;;;;;9.00;99.90;;;;;;5053402;28;19905;-70
2024/03/31 01:42:17;;;;;;;;;;;9.00;99.90;;;;;;5053380;28;19991;-70
2024/03/31 01:44:42;;;;;;;;;;;9.10;99.90;;;;;;5053309;28;19909;-70
2024/03/31 01:47:08;;;;;;;;;;;9.00;99.90;;;;;;5053107;28;20353;-70
2024/03/31 01:49:33;;;;;;;;;;;9.10;99.90;;;;;;5052469;28;19912;-70
2024/03/31 01:51:59;;;;;;;;;;;9.30;99.90;;;;;;5053212;28;19905;-70
2024/03/31 01:54:24;;;;;;;;;;;9.20;99.90;;;;;;5053065;28;19916;-70
2024/03/31 01:56:50;;;;;;;;;;;9.30;99.90;;;;;;5052905;28;19959;-69
2024/03/31 01:59:15;;;;;;;;;;;9.30;99.90;;;;;;5053012;28;20450;-69
2024/03/31 02:01:40;;;;;;;;;;;9.40;99.90;;;;;;5053065;28;19912;-69
2024/03/31 02:04:06;;;;;;;;;;;9.40;99.90;;;;;;5053006;28;19999;-70
2024/03/31 02:06:31;;;;;;;;;;;9.40;99.90;;;;;;5052906;28;19927;-69
2024/03/31 02:08:57;;;;;;;;;;;9.50;99.90;;;;;;5052661;28;19952;-69
2024/03/31 02:11:22;;;;;;;;;;;9.60;99.90;;;;;;5052976;28;19930;-70
2024/03/31 02:13:48;;;;;;;;;;;9.70;99.90;;;;;;5052725;28;19908;-70
2024/03/31 02:16:14;;;;;;;;;;;9.80;99.90;;;;;;5052725;28;20320;-70
2024/03/31 02:18:40;;;;;;;;;;;9.90;99.90;;;;;;5052531;28;19999;-70
2024/03/31 02:21:05;;;;;;;;;;;9.90;99.90;;;;;;5052684;28;19911;-70
2024/03/31 02:23:31;;;;;;;;;;;10.00;99.90;;;;;;5052605;28;19904;-70
2024/03/31 02:25:56;;;;;;;;;;;10.00;99.90;;;;;;5052664;28;19905;-70
2024/03/31 02:28:21;;;;;;;;;;;10.10;99.90;;;;;;5052250;28;20344;-69
2024/03/31 02:30:47;;;;;;;;;;;10.10;99.90;;;;;;5052544;28;19912;-70
2024/03/31 02:33:12;;;;;;;;;;;10.10;99.90;;;;;;5052448;28;19975;-69
2024/03/31 02:35:38;;;;;;;;;;;10.00;99.90;;;;;;5052410;28;19935;-69
2024/03/31 02:38:03;;;;;;;;;;;9.90;99.90;;;;;;5052228;28;19904;-69
2024/03/31 02:40:29;;;;;;;;;;;10.00;99.90;;;;;;5052446;28;19905;-69
2024/03/31 02:42:54;;;;;;;;;;;9.90;99.90;;;;;;5052343;28;20000;-70
2024/03/31 02:45:20;;;;;;;;;;;9.90;99.90;;;;;;5052432;28;20434;-70
2024/03/31 02:47:45;;;;;;;;;;;10.00;99.90;;;;;;5052010;28;19966;-69
2024/03/31 02:50:11;;;;;;;;;;;10.00;99.90;;;;;;5052270;28;19905;-70
2024/03/31 02:52:36;;;;;;;;;;;10.00;99.90;;;;;;5052148;28;19965;-70
2024/03/31 02:55:02;;;;;;;;;;;10.00;99.90;;;;;;5052276;28;19909;-69
2024/03/31 02:57:28;;;;;;;;;;;9.80;99.90;;;;;;5052033;28;19905;-69
2024/03/31 02:59:53;;;;;;;;;;;9.70;99.90;;;;;;5052101;28;20276;-70
2024/03/31 03:02:19;;;;;;;;;;;9.60;99.90;;;;;;5052123;28;19905;-69
2024/03/31 03:04:44;;;;;;;;;;;9.60;99.90;;;;;;5052155;28;19904;-69
2024/03/31 03:07:09;;;;;;;;;;;9.60;99.90;;;;;;5051946;28;19912;-69
2024/03/31 03:09:35;;;;;;;;;;;9.50;99.90;;;;;;5052034;28;19905;-69
2024/03/31 03:12:00;;;;;;;;;;;9.60;99.90;;;;;;5052079;28;20411;-69
2024/03/31 03:14:26;;;;;;;;;;;9.50;99.90;;;;;;5051958;28;19908;-70
2024/03/31 03:16:51;;;;;;;;;;;9.60;99.90;;;;;;5051797;28;19919;-69
2024/03/31 03:19:17;;;;;;;;;;;9.60;99.90;;;;;;5051979;28;19916;-70
2024/03/31 03:21:42;;;;;;;;;;;9.20;99.90;;;;;;5051991;28;19948;-70
2024/03/31 03:24:08;;;;;;;;;;;9.70;99.90;;;;;;5051907;28;19928;-70
2024/03/31 03:26:33;;;;;;;;;;;9.80;99.90;;;;;;5052014;28;20287;-69
2024/03/31 03:28:59;;;;;;;;;;;9.80;99.90;;;;;;5051670;28;19912;-70
2024/03/31 03:31:24;;;;;;;;;;;9.70;99.90;;;;;;5052002;28;19911;-70
2024/03/31 03:33:50;;;;;;;;;;;9.80;99.90;;;;;;5051755;28;20327;-69
2024/03/31 03:36:15;;;;;;;;;;;9.90;99.90;;;;;;5051869;28;19911;-70
2024/03/31 03:38:41;;;;;;;;;;;9.90;99.90;;;;;;5051521;28;20471;-70
2024/03/31 03:41:06;;;;;;;;;;;9.90;99.90;;;;;;5051789;28;19966;-70
2024/03/31 03:43:35;;;;;;;;;;;9.90;99.90;;;;;;5051680;28;19915;-69
2024/03/31 03:46:00;;;;;;;;;;;10.00;99.90;;;;;;5051814;28;19912;-70
2024/03/31 03:48:26;;;;;;;;;;;10.00;99.90;;;;;;5051476;28;19983;-69
2024/03/31 03:50:52;;;;;;;;;;;10.00;99.90;;;;;;5051815;28;19909;-69
2024/03/31 03:53:17;;;;;;;;;;;10.10;99.90;;;;;;5051660;28;19966;-70
2024/03/31 03:55:43;;;;;;;;;;;10.10;99.90;;;;;;5051685;28;19905;-69
2024/03/31 03:58:08;;;;;;;;;;;10.00;99.90;;;;;;5051331;28;19911;-70
2024/03/31 04:00:38;;;;;;;;;;;9.80;99.90;;;;;;5051707;28;19901;-69
2024/03/31 04:03:03;;;;;;;;;;;9.80;99.90;;;;;;5051513;28;19905;-69
2024/03/31 04:05:29;;;;;;;;;;;9.70;99.90;;;;;;5051652;28;19911;-69
2024/03/31 04:07:54;;;;;;;;;;;9.90;99.90;;;;;;5051257;28;19958;-70
2024/03/31 04:10:20;;;;;;;;;;;9.80;99.90;;;;;;5051580;28;19904;-69
2024/03/31 04:12:45;;;;;;;;;;;9.80;99.90;;;;;;5052620;28;19912;-69
2024/03/31 04:15:11;;;;;;;;;;;9.90;99.90;;;;;;5055130;28;19905;-70
2024/03/31 04:17:38;;;;;;;;;;;9.90;99.90;;;;;;5054687;28;19917;-69
2024/03/31 04:20:04;;;;;;;;;;;9.90;99.90;;;;;;5054963;28;19905;-69
2024/03/31 04:22:29;;;;;;;;;;;9.90;99.90;;;;;;5055053;28;20376;-69
2024/03/31 04:24:55;;;;;;;;;;;10.00;99.90;;;;;;5054940;28;19905;-70
2024/03/31 04:27:21;;;;;;;;;;;10.00;99.90;;;;;;5054704;28;19991;-70
2024/03/31 04:29:46;;;;;;;;;;;10.00;99.90;;;;;;5054860;28;19911;-69
2024/03/31 04:32:12;;;;;;;;;;;10.00;99.90;;;;;;5054818;28;19916;-69
2024/03/31 04:34:37;;;;;;;;;;;10.00;99.90;;;;;;5054723;28;20004;-69
2024/03/31 04:37:03;;;;;;;;;;;10.10;99.90;;;;;;5054496;28;19904;-69
2024/03/31 04:39:28;;;;;;;;;;;10.00;99.90;;;;;;5054676;28;19905;-70
2024/03/31 04:41:54;;;;;;;;;;;10.00;99.90;;;;;;5054685;28;19991;-70
2024/03/31 04:44:19;;;;;;;;;;;10.00;99.90;;;;;;5054630;28;19912;-69
2024/03/31 04:46:49;;;;;;;;;;;10.10;99.90;;;;;;5054575;28;19905;-70
2024/03/31 04:49:14;;;;;;;;;;;10.10;99.90;;;;;;5054226;28;19912;-69
2024/03/31 04:51:40;;;;;;;;;;;10.10;99.90;;;;;;5054538;28;19905;-70
2024/03/31 04:54:05;;;;;;;;;;;10.10;99.90;;;;;;5054306;28;19909;-69
2024/03/31 04:56:31;;;;;;;;;;;10.10;99.90;;;;;;5054371;28;19952;-68
2024/03/31 04:58:56;;;;;;;;;;;10.10;99.90;;;;;;5054056;28;19967;-69
2024/03/31 05:01:22;;;;;;;;;;;10.10;99.90;;;;;;5054282;28;19908;-68
2024/03/31 05:03:47;;;;;;;;;;;10.10;99.90;;;;;;5054215;28;19936;-68
2024/03/31 05:06:13;;;;;;;;;;;10.00;99.90;;;;;;5054274;28;19908;-69
2024/03/31 05:08:38;;;;;;;;;;;10.00;99.90;;;;;;5053782;28;19904;-69
2024/03/31 05:11:04;;;;;;;;;;;9.90;99.90;;;;;;5054014;28;19909;-68
2024/03/31 05:13:29;;;;;;;;;;;9.90;99.90;;;;;;5053905;28;19943;-68
2024/03/31 05:16:01;;;;;;;;;;;9.80;99.90;;;;;;5053969;28;19904;-69
2024/03/31 05:18:27;;;;;;;;;;;9.70;99.90;;;;;;5053612;28;19999;-69
2024/03/31 05:20:55;;;;;;;;;;;9.80;99.90;;;;;;5053860;28;20398;-69
2024/03/31 05:23:21;;;;;;;;;;;9.70;99.90;;;;;;5053470;28;19975;-69
2024/03/31 05:25:47;;;;;;;;;;;9.70;99.90;;;;;;5053400;28;20361;-69
2024/03/31 05:28:12;;;;;;;;;;;9.70;99.90;;;;;;5053411;28;19975;-69
2024/03/31 05:30:37;;;;;;;;;;;9.70;99.90;;;;;;5053651;28;19905;-68
2024/03/31 05:33:03;;;;;;;;;;;9.70;99.90;;;;;;5053551;28;19913;-69
2024/03/31 05:35:29;;;;;;;;;;;9.70;99.90;;;;;;5053635;28;19996;-69
2024/03/31 05:37:54;;;;;;;;;;;10.00;99.90;;;;;;5053217;28;19904;-69
2024/03/31 05:40:20;;;;;;;;;;;9.60;99.90;;;;;;5053566;28;19912;-69
2024/03/31 05:42:45;;;;;;;;;;;9.70;99.90;;;;;;5053779;28;20519;-69
2024/03/31 05:45:10;;;;;;;;;;;9.70;99.90;;;;;;5053333;28;19905;-68
2024/03/31 05:47:36;;;;;;;;;;;9.70;99.90;;;;;;5053190;28;19905;-68
2024/03/31 05:50:01;;;;;;;;;;;9.80;99.90;;;;;;5053226;28;19909;-69
2024/03/31 05:52:27;;;;;;;;;;;9.80;99.90;;;;;;5053146;28;19905;-69
2024/03/31 05:54:52;;;;;;;;;;;9.80;99.90;;;;;;5053207;28;19905;-68
2024/03/31 05:57:18;;;;;;;;;;;9.80;99.90;;;;;;5052906;28;20357;-69
2024/03/31 05:59:43;;;;;;;;;;;9.80;99.90;;;;;;5053033;28;19991;-69
2024/03/31 06:02:09;;;;;;;;;;;10.00;99.90;;;;;;5053089;28;19908;-68
2024/03/31 06:04:34;;;;;;;;;;;9.90;99.90;;;;;;5052968;28;20315;-68
2024/03/31 06:07:00;;;;;;;;;;;10.00;99.90;;;;;;5052725;28;19996;-69
2024/03/31 06:09:25;;;;;;;;;;;10.10;99.90;;;;;;5052853;28;19911;-69
2024/03/31 06:11:51;;;;;;;;;;;10.20;99.90;;;;;;5052866;28;19905;-69
2024/03/31 06:14:16;;;;;;;;;;;10.30;99.90;;;;;;5052707;28;19966;-68
2024/03/31 06:16:42;;;;;;;;;;;10.30;99.90;;;;;;5052816;28;19995;-69
2024/03/31 06:19:07;;;;;;;;;;;10.30;99.90;;;;;;5052407;28;19904;-68
2024/03/31 06:21:33;;;;;;;;;;;10.40;99.90;;;;;;5052735;28;19951;-68
2024/03/31 06:23:58;;;;;;;;;;;10.50;99.90;;;;;;5052581;28;20375;-69
2024/03/31 06:26:24;;;;;;;;;;;10.60;99.90;;;;;;5052701;28;19927;-69
2024/03/31 06:28:49;;;;;;;;;;;10.70;99.90;;;;;;5052250;28;19987;-68
2024/03/31 06:31:15;;;;;;;;;;;10.70;99.90;;;;;;5052493;28;19904;-68
2024/03/31 06:33:43;;;;;;;;;;;10.80;99.90;;;;;;5052489;28;19908;-69
2024/03/31 06:36:09;;;;;;;;;;;10.80;99.90;;;;;;5052180;28;20346;-68
2024/03/31 06:38:34;;;;;;;;;;;10.90;99.90;;;;;;5052106;28;20078;-69
2024/03/31 06:41:00;;;;;;;;;;;10.90;99.90;;;;;;5052479;28;19912;-69
2024/03/31 06:43:25;;;;;;;;;;;11.00;99.90;;;;;;5052369;28;19909;-68
2024/03/31 06:45:51;;;;;;;;;;;11.10;99.90;;;;;;5052336;28;20106;-68
2024/03/31 06:48:16;;;;;;;;;;;11.10;99.90;;;;;;5051998;28;19915;-69
2024/03/31 06:50:42;;;;;;;;;;;11.20;99.90;;;;;;5052284;28;19913;-69
2024/03/31 06:53:07;;;;;;;;;;;11.30;99.90;;;;;;5052068;28;20264;-69
2024/03/31 06:55:33;;;;;;;;;;;11.30;99.90;;;;;;5052226;28;19959;-69
2024/03/31 06:57:58;;;;;;;;;;;11.70;99.90;;;;;;5051889;28;19911;-69
2024/03/31 07:00:24;;;;;;;;;;;11.50;99.90;;;;;;5052169;28;19904;-69
2024/03/31 07:02:49;;;;;;;;;;;11.50;99.90;;;;;;5052149;28;20324;-68
2024/03/31 07:05:15;;;;;;;;;;;11.60;99.90;;;;;;5052172;28;19909;-69
2024/03/31 07:07:41;;;;;;;;;;;11.60;99.90;;;;;;5051891;28;19909;-69
2024/03/31 07:10:06;;;;;;;;;;;11.70;99.90;;;;;;5051967;28;19905;-69
2024/03/31 07:12:32;;;;;;;;;;;11.70;99.90;;;;;;5051969;28;19915;-68
2024/03/31 07:14:57;;;;;;;;;;;11.80;99.90;;;;;;5052028;28;19957;-69
2024/03/31 07:17:23;;;;;;;;;;;11.80;99.90;;;;;;5051717;28;19995;-69
2024/03/31 07:19:48;;;;;;;;;;;11.90;99.90;;;;;;5051957;28;19974;-69
2024/03/31 07:22:13;;;;;;;;;;;11.90;99.90;;;;;;5051898;28;19905;-68
2024/03/31 07:24:39;;;;;;;;;;;11.90;99.90;;;;;;5051979;28;20353;-69
2024/03/31 07:27:04;;;;;;;;;;;11.90;99.90;;;;;;5051665;28;19905;-69
2024/03/31 07:29:31;;;;;;;;;;;11.90;99.90;;;;;;5051841;28;19959;-68
2024/03/31 07:31:56;;;;;;;;;;;11.90;99.90;;;;;;5051921;28;19904;-69
2024/03/31 07:34:22;;;;;;;;;;;12.00;99.90;;;;;;5051742;28;19938;-68
2024/03/31 07:36:47;;;;;;;;;;;12.10;99.90;;;;;;5052004;28;19905;-69
2024/03/31 07:39:13;;;;;;;;;;;12.20;99.90;;;;;;5051669;28;20352;-69
2024/03/31 07:41:38;;;;;;;;;;;12.20;99.90;;;;;;5051834;28;19905;-68
2024/03/31 07:44:04;;;;;;;;;;;12.30;99.90;;;;;;5051710;28;19905;-69
2024/03/31 07:46:29;;;;;;;;;;;12.30;99.90;;;;;;5051769;28;19973;-69
2024/03/31 07:48:56;;;;;;;;;;;12.30;99.90;;;;;;5054601;28;19905;-69
2024/03/31 07:51:21;;;;;;;;;;;12.30;99.90;;;;;;5055529;28;20292;-70
2024/03/31 07:53:47;;;;;;;;;;;12.30;99.90;;;;;;5055411;28;19909;-69
2024/03/31 07:56:12;;;;;;;;;;;12.30;99.90;;;;;;5055464;28;19904;-68
2024/03/31 07:58:38;;;;;;;;;;;12.50;99.90;;;;;;5055169;28;19909;-68
2024/03/31 08:01:03;;;;;;;;;;;12.50;99.90;;;;;;5055404;28;20418;-69
2024/03/31 08:03:29;;;;;;;;;;;12.60;99.90;;;;;;5055307;28;19936;-69
2024/03/31 08:05:54;;;;;;;;;;;12.70;99.90;;;;;;5055322;28;19905;-69
2024/03/31 08:08:20;;;;;;;;;;;12.80;99.90;;;;;;5054939;28;20511;-69
2024/03/31 08:10:46;;;;;;;;;;;12.80;99.90;;;;;;5055207;28;19905;-68
2024/03/31 08:13:11;;;;;;;;;;;12.90;99.90;;;;;;5054958;28;20439;-68
2024/03/31 08:15:37;;;;;;;;;;;12.90;99.90;;;;;;5055146;28;20367;-69
2024/03/31 08:18:04;;;;;;;;;;;13.00;99.90;;;;;;5054384;28;19912;-69
2024/03/31 08:20:31;;;;;;;;;;;13.10;99.90;;;;;;5054960;28;19944;-68
2024/03/31 08:22:57;;;;;;;;;;;13.20;99.90;;;;;;5054949;28;20276;-69
2024/03/31 08:25:22;;;;;;;;;;;13.30;99.90;;;;;;5054845;28;19912;-68
2024/03/31 08:27:48;;;;;;;;;;;13.70;99.90;;;;;;5054489;28;19905;-69
2024/03/31 08:30:13;;;;;;;;;;;13.50;99.90;;;;;;5054844;28;19927;-68
2024/03/31 08:32:39;;;;;;;;;;;13.60;99.90;;;;;;5054718;28;19949;-69
2024/03/31 08:35:04;;;;;;;;;;;13.80;99.90;;;;;;5054713;28;19970;-68
2024/03/31 08:37:30;;;;;;;;;;;13.80;99.90;;;;;;5054480;28;19905;-68
2024/03/31 08:39:56;;;;;;;;;;;14.00;99.90;;;;;;5054606;28;19904;-69
2024/03/31 08:42:28;;;;;;;;;;;14.10;99.90;;;;;;5054597;28;19909;-69
2024/03/31 08:44:55;;;;;;;;;;;14.10;99.90;;;;;;5054538;28;19905;-69
2024/03/31 08:47:27;;;;;;;;;;;14.20;99.30;;;;;;5054267;28;19951;-69
2024/03/31 08:49:54;;;;;;;;;;;14.30;99.90;;;;;;5054435;28;19955;-69
2024/03/31 08:52:19;;;;;;;;;;;14.30;99.70;;;;;;5054538;28;20342;-69
2024/03/31 08:54:46;;;;;;;;;;;14.40;99.90;;;;;;5054272;28;19909;-69
2024/03/31 08:57:11;;;;;;;;;;;14.50;99.90;;;;;;5054111;28;20024;-69
2024/03/31 08:59:37;;;;;;;;;;;14.60;99.90;;;;;;5053989;28;19905;-68
2024/03/31 09:02:02;;;;;;;;;;;14.70;99.90;;;;;;5054228;28;19912;-69
2024/03/31 09:04:28;;;;;;;;;;;14.80;96.30;;;;;;5054405;28;19947;-69
2024/03/31 09:06:53;;;;;;;;;;;15.00;87.20;;;;;;5053942;28;19905;-69
2024/03/31 09:09:22;;;;;;;;;;;15.10;86.10;;;;;;5054151;28;19904;-69
2024/03/31 09:11:48;;;;;;;;;;;15.10;82.30;;;;;;5054087;28;20360;-69
2024/03/31 09:14:14;;;;;;;;;;;15.20;65.60;;;;;;5053897;28;19909;-69
2024/03/31 09:16:43;;;;;;;;;;;15.20;61.00;;;;;;5053833;28;19915;-69
2024/03/31 09:19:09;;;;;;;;;;;15.30;57.60;;;;;;5053656;28;19968;-69
2024/03/31 09:21:42;;;;;;;;;;;15.30;37.00;;;;;;5053895;28;20276;-69
2024/03/31 09:24:08;;;;;;;;;;;15.40;54.90;;;;;;5053878;28;19911;-69
2024/03/31 09:26:33;;;;;;;;;;;15.50;43.60;;;;;;5053747;28;19905;-69
2024/03/31 09:28:59;;;;;;;;;;;15.50;42.40;;;;;;5053465;28;20329;-69
2024/03/31 09:31:24;;;;;;;;;;;15.50;30.00;;;;;;5053634;28;19905;-69
2024/03/31 09:33:49;;;;;;;;;;;15.60;27.50;;;;;;5053574;28;19909;-69
2024/03/31 09:36:15;;;;;;;;;;;15.60;25.00;;;;;;5053562;28;19958;-69
2024/03/31 09:38:40;;;;;;;;;;;15.60;17.90;;;;;;5053248;28;19995;-69
2024/03/31 09:41:06;;;;;;;;;;;15.50;19.80;;;;;;5053505;28;20403;-69
2024/03/31 09:43:32;;;;;;;;;;;15.50;17.80;;;;;;5053424;28;19913;-69
2024/03/31 09:45:57;;;;;;;;;;;15.60;17.80;;;;;;5053343;28;19905;-69
2024/03/31 09:48:25;;;;;;;;;;;15.60;23.20;;;;;;5053033;28;19912;-69
2024/03/31 09:50:55;;;;;;;;;;;15.80;23.80;;;;;;5053377;28;19912;-69
2024/03/31 09:53:21;;;;;;;;;;;15.90;16.90;;;;;;5053226;28;19943;-69
2024/03/31 09:55:47;;;;;;;;;;;15.80;14.60;;;;;;5053215;28;20349;-69
2024/03/31 09:58:15;;;;;;;;;;;15.80;9.80;;;;;;5052788;28;20407;-69
2024/03/31 10:00:41;;;;;;;;;;;15.80;15.70;;;;;;5053165;28;20284;-69
2024/03/31 10:03:13;;;;;;;;;;;16.10;16.80;;;;;;5053031;28;19904;-69
2024/03/31 10:05:39;;;;;;;;;;;16.40;16.30;;;;;;5053050;28;19908;-69
2024/03/31 10:08:06;;;;;;;;;;;16.50;4.20;;;;;;5052724;28;21199;-69
2024/03/31 10:10:32;;;;;;;;;;;16.50;1.60;;;;;;5052303;28;19908;-69
2024/03/31 10:12:58;;;;;;;;;;;16.80;3.40;;;;;;5052724;28;19947;-69
2024/03/31 10:15:24;;;;;;;;;;;16.80;1.00;;;;;;5052683;28;19905;-69
2024/03/31 10:17:50;;;;;;;;;;;16.50;23.70;;;;;;5052306;28;19920;-69
2024/03/31 10:20:17;;;;;;;;;;;16.60;1.90;;;;;;5052816;28;20006;-69
2024/03/31 10:22:42;;;;;;;;;;;16.50;5.30;;;;;;5052734;28;20414;-69
2024/03/31 10:25:09;;;;;;;;;;;16.60;6.20;;;;;;5052642;28;19904;-69
2024/03/31 10:27:35;;;;;;;;;;;16.80;5.10;;;;;;5052409;28;19951;-69
2024/03/31 10:30:01;;;;;;;;;;;17.00;4.30;;;;;;5052601;28;19909;-69
2024/03/31 10:32:26;;;;;;;;;;;17.20;1.00;;;;;;5052631;28;19958;-69
2024/03/31 10:34:53;;;;;;;;;;;17.10;1.00;;;;;;5052478;28;19999;-69
2024/03/31 10:37:18;;;;;;;;;;;17.20;1.00;;;;;;5052360;28;19904;-69
2024/03/31 10:39:44;;;;;;;;;;;17.40;1.00;;;;;;5052359;28;19912;-69
2024/03/31 10:42:10;;;;;;;;;;;17.50;1.00;;;;;;5052594;28;20285;-69
2024/03/31 10:44:37;;;;;;;;;;;17.90;1.00;;;;;;5052411;28;19948;-69
2024/03/31 10:47:03;;;;;;;;;;;18.20;1.00;;;;;;5052186;28;19911;-69
2024/03/31 10:49:35;;;;;;;;;;;18.30;1.00;;;;;;5052380;28;19979;-69
2024/03/31 10:52:00;;;;;;;;;;;18.30;1.00;;;;;;5052344;28;20007;-69
2024/03/31 10:54:36;;;;;;;;;;;18.50;1.00;;;;;;5050817;28;19991;-69
2024/03/31 10:57:02;;;;;;;;;;;18.70;1.00;;;;;;5052053;28;19905;-69
2024/03/31 10:59:28;;;;;;;;;;;19.30;1.00;;;;;;5052159;28;20319;-69
2024/03/31 11:01:55;;;;;;;;;;;19.60;1.00;;;;;;5052221;28;20276;-69
2024/03/31 11:04:22;;;;;;;;;;;19.80;1.00;;;;;;5052102;28;19912;-70
2024/03/31 11:06:49;;;;;;;;;;;19.80;1.00;;;;;;5052126;28;19911;-69
2024/03/31 11:09:14;;;;;;;;;;;19.90;1.00;;;;;;5051830;28;19940;-69
2024/03/31 11:11:40;;;;;;;;;;;20.00;1.00;;;;;;5052097;28;19944;-69
2024/03/31 11:14:06;;;;;;;;;;;20.20;1.00;;;;;;5051953;28;20276;-69
2024/03/31 11:16:32;;;;;;;;;;;20.30;1.00;;;;;;5051881;28;20545;-69
2024/03/31 11:18:57;;;;;;;;;;;20.30;1.00;;;;;;5051786;28;20373;-69
2024/03/31 11:21:33;;;;;;;;;;;20.20;1.00;;;;;;5052777;28;19905;-70
2024/03/31 11:24:02;;;;;;;;;;;20.20;1.00;;;;;;5055940;28;19905;-69
2024/03/31 11:26:27;;;;;;;;;;;20.00;1.00;;;;;;5056029;28;19949;-69
2024/03/31 11:28:55;;;;;;;;;;;19.70;1.00;;;;;;5055715;28;20334;-69
2024/03/31 11:31:22;;;;;;;;;;;19.60;1.00;;;;;;5055958;28;19909;-69
2024/03/31 11:33:48;;;;;;;;;;;19.70;1.00;;;;;;5055834;28;19961;-69
2024/03/31 11:36:15;;;;;;;;;;;19.70;1.00;;;;;;5055879;28;19904;-69
2024/03/31 11:38:41;;;;;;;;;;;20.00;1.00;;;;;;5055440;28;19908;-69
2024/03/31 11:41:06;;;;;;;;;;;20.10;1.00;;;;;;5055789;28;19912;-69
2024/03/31 11:43:32;;;;;;;;;;;20.30;1.00;;;;;;5055688;28;19944;-69
2024/03/31 11:45:57;;;;;;;;;;;20.40;1.00;;;;;;5055678;28;19950;-69
2024/03/31 11:48:23;;;;;;;;;;;20.40;1.00;;;;;;5055311;28;19905;-69
2024/03/31 11:50:48;;;;;;;;;;;20.20;1.00;;;;;;5055653;28;19905;-69
2024/03/31 11:53:14;;;;;;;;;;;19.90;1.00;;;;;;5055317;28;19952;-69
2024/03/31 11:55:40;;;;;;;;;;;19.90;1.00;;;;;;5055507;28;20003;-69
2024/03/31 11:58:06;;;;;;;;;;;20.00;1.00;;;;;;5055145;28;20383;-69
2024/03/31 12:00:31;;;;;;;;;;;20.00;1.00;;;;;;5055445;28;19947;-69
2024/03/31 12:03:06;;;;;;;;;;;20.00;1.00;;;;;;5055338;28;20272;-69
2024/03/31 12:05:32;;;;;;;;;;;20.00;1.00;;;;;;5055315;28;19969;-69
2024/03/31 12:07:57;;;;;;;;;;;19.90;1.00;;;;;;5054912;28;20261;-69
2024/03/31 12:10:23;;;;;;;;;;;20.10;1.00;;;;;;5055165;28;19911;-69
2024/03/31 12:12:49;;;;;;;;;;;20.00;1.00;;;;;;5055073;28;19905;-69
2024/03/31 12:15:15;;;;;;;;;;;19.90;1.00;;;;;;5055044;28;19911;-69
2024/03/31 12:17:41;;;;;;;;;;;20.00;1.00;;;;;;5054705;28;19917;-69
2024/03/31 12:20:10;;;;;;;;;;;20.00;1.00;;;;;;5054617;28;19966;-69
2024/03/31 12:22:36;;;;;;;;;;;20.10;1.00;;;;;;5054078;28;19974;-69
2024/03/31 12:25:03;;;;;;;;;;;19.90;1.00;;;;;;5053905;28;19908;-69
2024/03/31 12:27:29;;;;;;;;;;;19.90;1.00;;;;;;5053467;28;19959;-69
2024/03/31 12:29:54;;;;;;;;;;;19.60;1.00;;;;;;5054802;28;20345;-69
2024/03/31 12:32:20;;;;;;;;;;;19.50;1.00;;;;;;5054820;28;19944;-69
2024/03/31 12:34:46;;;;;;;;;;;19.50;1.00;;;;;;5054024;28;19909;-69
2024/03/31 12:37:12;;;;;;;;;;;19.60;1.00;;;;;;5054159;28;19911;-69
2024/03/31 12:39:37;;;;;;;;;;;19.60;1.00;;;;;;5053258;28;19958;-68
2024/03/31 12:42:03;;;;;;;;;;;19.80;1.00;;;;;;5053390;28;19936;-69
2024/03/31 12:44:28;;;;;;;;;;;20.00;1.00;;;;;;5053417;28;19905;-69
2024/03/31 12:46:54;;;;;;;;;;;19.80;1.00;;;;;;5054058;28;19978;-69
2024/03/31 12:49:19;;;;;;;;;;;20.50;1.00;;;;;;5054384;28;19904;-69
2024/03/31 12:51:51;;;;;;;;;;;20.80;1.00;;;;;;5054386;28;19950;-69
2024/03/31 12:54:17;;;;;;;;;;;21.10;1.00;;;;;;5054354;28;19943;-69
2024/03/31 12:56:43;;;;;;;;;;;21.30;1.00;;;;;;5054365;28;19905;-69
2024/03/31 12:59:08;;;;;;;;;;;21.40;1.00;;;;;;5054113;28;19905;-69
2024/03/31 13:01:34;;;;;;;;;;;21.70;1.00;;;;;;5054273;28;19911;-69
2024/03/31 13:03:59;;;;;;;;;;;21.90;1.00;;;;;;5054192;28;19905;-69
2024/03/31 13:06:25;;;;;;;;;;;22.30;1.00;;;;;;5054147;28;19951;-69
2024/03/31 13:08:50;;;;;;;;;;;22.50;1.00;;;;;;5053871;28;19995;-69
2024/03/31 13:11:16;;;;;;;;;;;22.60;1.00;;;;;;5054072;28;19908;-69
2024/03/31 13:13:42;;;;;;;;;;;23.10;1.00;;;;;;5053963;28;20336;-69
2024/03/31 13:16:07;;;;;;;;;;;23.60;1.00;;;;;;5053927;28;19912;-69
2024/03/31 13:18:33;;;;;;;;;;;24.20;1.00;;;;;;5053604;28;19976;-69
2024/03/31 13:20:58;;;;;;;;;;;24.70;1.00;;;;;;5053904;28;19944;-69
2024/03/31 13:23:26;;;;;;;;;;;24.70;1.00;;;;;;5053967;28;20354;-69
2024/03/31 13:25:51;;;;;;;;;;;24.10;1.00;;;;;;5053805;28;19967;-69
2024/03/31 13:28:17;;;;;;;;;;;24.10;1.00;;;;;;5053410;28;19940;-69
2024/03/31 13:30:42;;;;;;;;;;;24.50;1.00;;;;;;5053727;28;19910;-69
2024/03/31 13:33:08;;;;;;;;;;;25.20;1.00;;;;;;5053509;28;19908;-69
2024/03/31 13:35:33;;;;;;;;;;;25.40;1.00;;;;;;5053580;28;19905;-69
2024/03/31 13:37:59;;;;;;;;;;;25.90;1.00;;;;;;5053500;28;19905;-69
2024/03/31 13:40:25;;;;;;;;;;;26.00;1.00;;;;;;5053561;28;19944;-69
2024/03/31 13:42:51;;;;;;;;;;;25.50;1.00;;;;;;5053467;28;19991;-69
2024/03/31 13:45:16;;;;;;;;;;;25.30;1.00;;;;;;5052500;28;19959;-69
2024/03/31 13:47:42;;;;;;;;;;;25.50;1.00;;;;;;5053203;28;19979;-69
2024/03/31 13:50:07;;;;;;;;;;;26.00;1.00;;;;;;5053235;28;19911;-69
2024/03/31 13:52:33;;;;;;;;;;;26.90;1.00;;;;;;5053303;28;19991;-69
2024/03/31 13:54:58;;;;;;;;;;;26.40;1.00;;;;;;5053174;28;20055;-69
2024/03/31 13:57:24;;;;;;;;;;;25.90;1.00;;;;;;5052991;28;19904;-69
2024/03/31 13:59:49;;;;;;;;;;;24.90;1.00;;;;;;5053090;28;20372;-69
2024/03/31 14:02:15;;;;;;;;;;;23.80;1.00;;;;;;5053419;28;20002;-68
2024/03/31 14:04:41;;;;;;;;;;;23.10;1.00;;;;;;5053057;28;19994;-68
2024/03/31 14:07:07;;;;;;;;;;;22.70;1.00;;;;;;5052828;28;19995;-69
2024/03/31 14:09:32;;;;;;;;;;;22.30;1.00;;;;;;5052930;28;20428;-69
2024/03/31 14:11:58;;;;;;;;;;;22.00;1.00;;;;;;5052916;28;19978;-69
2024/03/31 14:14:23;;;;;;;;;;;21.90;1.00;;;;;;5052779;28;19909;-69
2024/03/31 14:16:49;;;;;;;;;;;21.90;1.00;;;;;;5052729;28;20311;-69